sensor_id;sensor_type;location;lat;lon;timestamp;temperature;humidity
22578;DHT22;11455;52.390;13.028;2022-08-30T00:00:12;18.10;99.90
22578;DHT22;11455;52.390;13.028;2022-08-30T00:02:57;18.10;99.90
22578;DHT22;11455;52.390;13.028;2022-08-30T00:05:25;18.00;99.90
22578;DHT22;11455;52.390;13.028;2022-08-30T00:07:51;18.00;99.90
22578;DHT22;11455;52.390;13.028;2022-08-30T00:10:16;18.00;99.90
22578;DHT22;11455;52.390;13.028;2022-08-30T00:12:42;18.10;99.90
22578;DHT22;11455;52.390;13.028;2022-08-30T00:15:08;18.00;99.90
22578;DHT22;11455;52.390;13.028;2022-08-30T00:17:34;18.00;99.90
22578;DHT22;11455;52.390;13.028;2022-08-30T00:20:00;18.00;99.90
22578;DHT22;11455;52.390;13.028;2022-08-30T00:22:26;18.00;99.90
22578;DHT22;11455;52.390;13.028;2022-08-30T00:24:51;17.90;99.90
22578;DHT22;11455;52.390;13.028;2022-08-30T00:27:17;17.80;99.90
22578;DHT22;11455;52.390;13.028;2022-08-30T00:29:43;17.80;99.90
22578;DHT22;11455;52.390;13.028;2022-08-30T00:32:08;17.80;99.90
22578;DHT22;11455;52.390;13.028;2022-08-30T00:34:34;17.80;99.90
22578;DHT22;11455;52.390;13.028;2022-08-30T00:36:59;17.90;99.90
22578;DHT22;11455;52.390;13.028;2022-08-30T00:39:26;18.00;99.90
22578;DHT22;11455;52.390;13.028;2022-08-30T00:41:52;18.00;99.90
22578;DHT22;11455;52.390;13.028;2022-08-30T00:44:17;18.00;99.90
22578;DHT22;11455;52.390;13.028;2022-08-30T00:46:43;18.00;99.90
22578;DHT22;11455;52.390;13.028;2022-08-30T00:49:09;18.00;99.90
22578;DHT22;11455;52.390;13.028;2022-08-30T00:51:35;18.00;99.90
22578;DHT22;11455;52.390;13.028;2022-08-30T00:54:01;18.00;99.90
22578;DHT22;11455;52.390;13.028;2022-08-30T00:56:28;18.00;99.90
22578;DHT22;11455;52.390;13.028;2022-08-30T00:58:54;18.00;99.90
22578;DHT22;11455;52.390;13.028;2022-08-30T01:01:21;17.90;99.90
22578;DHT22;11455;52.390;13.028;2022-08-30T01:03:47;18.00;99.90
22578;DHT22;11455;52.390;13.028;2022-08-30T01:06:13;18.00;99.90
22578;DHT22;11455;52.390;13.028;2022-08-30T01:08:42;18.00;99.90
22578;DHT22;11455;52.390;13.028;2022-08-30T01:11:08;18.00;99.90
22578;DHT22;11455;52.390;13.028;2022-08-30T01:13:34;18.00;99.90
22578;DHT22;11455;52.390;13.028;2022-08-30T01:16:00;18.00;99.90
22578;DHT22;11455;52.390;13.028;2022-08-30T01:18:29;17.90;99.90
22578;DHT22;11455;52.390;13.028;2022-08-30T01:21:16;17.90;99.90
22578;DHT22;11455;52.390;13.028;2022-08-30T01:23:44;17.90;99.90
22578;DHT22;11455;52.390;13.028;2022-08-30T01:26:10;17.80;99.90
22578;DHT22;11455;52.390;13.028;2022-08-30T01:28:35;17.80;99.90
22578;DHT22;11455;52.390;13.028;2022-08-30T01:31:01;17.80;99.90
22578;DHT22;11455;52.390;13.028;2022-08-30T01:33:27;17.70;99.90
22578;DHT22;11455;52.390;13.028;2022-08-30T01:38:21;17.70;99.90
22578;DHT22;11455;52.390;13.028;2022-08-30T01:40:48;17.70;99.90
22578;DHT22;11455;52.390;13.028;2022-08-30T01:43:14;17.80;99.90
22578;DHT22;11455;52.390;13.028;2022-08-30T01:45:41;17.70;99.90
22578;DHT22;11455;52.390;13.028;2022-08-30T01:48:07;17.70;99.90
22578;DHT22;11455;52.390;13.028;2022-08-30T01:50:33;17.70;99.90
22578;DHT22;11455;52.390;13.028;2022-08-30T01:52:59;17.70;99.90
22578;DHT22;11455;52.390;13.028;2022-08-30T01:55:24;17.70;99.90
22578;DHT22;11455;52.390;13.028;2022-08-30T01:57:50;17.70;99.90
22578;DHT22;11455;52.390;13.028;2022-08-30T02:00:15;17.70;99.90
22578;DHT22;11455;52.390;13.028;2022-08-30T02:02:41;17.70;99.90
22578;DHT22;11455;52.390;13.028;2022-08-30T02:05:10;17.80;99.90
22578;DHT22;11455;52.390;13.028;2022-08-30T02:07:36;17.80;99.90
22578;DHT22;11455;52.390;13.028;2022-08-30T02:10:02;17.80;99.90
22578;DHT22;11455;52.390;13.028;2022-08-30T02:12:27;17.80;99.90
22578;DHT22;11455;52.390;13.028;2022-08-30T02:14:54;17.80;99.90
22578;DHT22;11455;52.390;13.028;2022-08-30T02:17:20;17.70;99.90
22578;DHT22;11455;52.390;13.028;2022-08-30T02:19:45;17.60;99.90
22578;DHT22;11455;52.390;13.028;2022-08-30T02:22:11;17.50;99.90
22578;DHT22;11455;52.390;13.028;2022-08-30T02:24:39;17.40;99.90
22578;DHT22;11455;52.390;13.028;2022-08-30T02:27:05;17.40;99.90
22578;DHT22;11455;52.390;13.028;2022-08-30T02:29:31;17.30;1.00
22578;DHT22;11455;52.390;13.028;2022-08-30T02:32:01;17.40;99.90
22578;DHT22;11455;52.390;13.028;2022-08-30T02:34:27;17.40;99.90
22578;DHT22;11455;52.390;13.028;2022-08-30T02:36:52;17.40;1.00
22578;DHT22;11455;52.390;13.028;2022-08-30T02:39:18;17.50;99.90
22578;DHT22;11455;52.390;13.028;2022-08-30T02:41:43;17.50;99.90
22578;DHT22;11455;52.390;13.028;2022-08-30T02:44:09;17.40;99.90
22578;DHT22;11455;52.390;13.028;2022-08-30T02:46:35;17.40;99.90
22578;DHT22;11455;52.390;13.028;2022-08-30T02:49:01;17.40;99.90
22578;DHT22;11455;52.390;13.028;2022-08-30T02:51:27;17.40;99.90
22578;DHT22;11455;52.390;13.028;2022-08-30T02:53:52;17.40;99.90
22578;DHT22;11455;52.390;13.028;2022-08-30T02:56:18;17.40;99.90
22578;DHT22;11455;52.390;13.028;2022-08-30T02:58:43;17.50;99.90
22578;DHT22;11455;52.390;13.028;2022-08-30T03:01:10;17.70;99.90
22578;DHT22;11455;52.390;13.028;2022-08-30T03:03:37;17.90;99.90
22578;DHT22;11455;52.390;13.028;2022-08-30T03:06:02;18.00;99.90
22578;DHT22;11455;52.390;13.028;2022-08-30T03:08:29;17.90;99.90
22578;DHT22;11455;52.390;13.028;2022-08-30T03:10:54;17.80;99.90
22578;DHT22;11455;52.390;13.028;2022-08-30T03:13:22;17.70;99.90
22578;DHT22;11455;52.390;13.028;2022-08-30T03:15:47;17.70;99.90
22578;DHT22;11455;52.390;13.028;2022-08-30T03:18:18;17.50;99.90
22578;DHT22;11455;52.390;13.028;2022-08-30T03:20:44;17.40;99.90
22578;DHT22;11455;52.390;13.028;2022-08-30T03:23:09;17.30;1.00
22578;DHT22;11455;52.390;13.028;2022-08-30T03:25:35;17.40;99.90
22578;DHT22;11455;52.390;13.028;2022-08-30T03:28:01;17.40;99.90
22578;DHT22;11455;52.390;13.028;2022-08-30T03:30:26;17.40;99.90
22578;DHT22;11455;52.390;13.028;2022-08-30T03:32:52;17.50;99.90
22578;DHT22;11455;52.390;13.028;2022-08-30T03:35:18;17.50;99.90
22578;DHT22;11455;52.390;13.028;2022-08-30T03:37:44;17.50;99.90
22578;DHT22;11455;52.390;13.028;2022-08-30T03:40:10;17.50;99.90
22578;DHT22;11455;52.390;13.028;2022-08-30T03:42:37;17.50;99.90
22578;DHT22;11455;52.390;13.028;2022-08-30T03:45:03;17.60;99.90
22578;DHT22;11455;52.390;13.028;2022-08-30T03:47:29;17.50;99.90
22578;DHT22;11455;52.390;13.028;2022-08-30T03:49:55;17.40;99.90
22578;DHT22;11455;52.390;13.028;2022-08-30T03:52:21;17.40;99.90
22578;DHT22;11455;52.390;13.028;2022-08-30T03:54:46;17.40;99.90
22578;DHT22;11455;52.390;13.028;2022-08-30T03:57:12;17.30;99.90
22578;DHT22;11455;52.390;13.028;2022-08-30T03:59:38;17.30;99.90
22578;DHT22;11455;52.390;13.028;2022-08-30T04:02:04;17.20;99.90
22578;DHT22;11455;52.390;13.028;2022-08-30T04:04:29;17.20;99.90
22578;DHT22;11455;52.390;13.028;2022-08-30T04:06:58;17.20;99.90
22578;DHT22;11455;52.390;13.028;2022-08-30T04:09:25;17.20;99.90
22578;DHT22;11455;52.390;13.028;2022-08-30T04:11:51;17.20;99.90
22578;DHT22;11455;52.390;13.028;2022-08-30T04:14:17;17.20;99.90
22578;DHT22;11455;52.390;13.028;2022-08-30T04:16:42;17.10;99.90
22578;DHT22;11455;52.390;13.028;2022-08-30T04:19:08;17.10;99.90
22578;DHT22;11455;52.390;13.028;2022-08-30T04:21:34;17.10;99.90
22578;DHT22;11455;52.390;13.028;2022-08-30T04:24:00;17.10;1.00
22578;DHT22;11455;52.390;13.028;2022-08-30T04:26:26;17.10;1.00
22578;DHT22;11455;52.390;13.028;2022-08-30T04:28:52;17.10;1.00
22578;DHT22;11455;52.390;13.028;2022-08-30T04:31:18;17.20;1.00
22578;DHT22;11455;52.390;13.028;2022-08-30T04:33:44;17.10;1.00
22578;DHT22;11455;52.390;13.028;2022-08-30T04:36:10;17.10;1.00
22578;DHT22;11455;52.390;13.028;2022-08-30T04:38:36;17.20;1.00
22578;DHT22;11455;52.390;13.028;2022-08-30T04:41:07;17.30;99.90
22578;DHT22;11455;52.390;13.028;2022-08-30T04:43:32;17.30;99.90
22578;DHT22;11455;52.390;13.028;2022-08-30T04:45:58;17.30;99.90
22578;DHT22;11455;52.390;13.028;2022-08-30T04:48:24;17.30;99.90
22578;DHT22;11455;52.390;13.028;2022-08-30T04:50:49;17.20;1.00
22578;DHT22;11455;52.390;13.028;2022-08-30T04:53:15;17.10;1.00
22578;DHT22;11455;52.390;13.028;2022-08-30T04:55:41;17.10;1.00
22578;DHT22;11455;52.390;13.028;2022-08-30T04:58:08;17.00;1.00
22578;DHT22;11455;52.390;13.028;2022-08-30T05:00:33;17.00;1.00
22578;DHT22;11455;52.390;13.028;2022-08-30T05:02:59;17.00;1.00
22578;DHT22;11455;52.390;13.028;2022-08-30T05:05:25;17.30;1.00
22578;DHT22;11455;52.390;13.028;2022-08-30T05:08:10;17.50;99.90
22578;DHT22;11455;52.390;13.028;2022-08-30T05:10:38;17.70;99.90
22578;DHT22;11455;52.390;13.028;2022-08-30T05:13:04;17.90;99.90
22578;DHT22;11455;52.390;13.028;2022-08-30T05:15:30;18.10;99.90
22578;DHT22;11455;52.390;13.028;2022-08-30T05:17:58;18.10;99.90
22578;DHT22;11455;52.390;13.028;2022-08-30T05:20:24;18.00;99.90
22578;DHT22;11455;52.390;13.028;2022-08-30T05:22:50;18.00;99.90
22578;DHT22;11455;52.390;13.028;2022-08-30T05:25:17;18.20;99.90
22578;DHT22;11455;52.390;13.028;2022-08-30T05:27:42;18.20;99.90
22578;DHT22;11455;52.390;13.028;2022-08-30T05:30:08;18.20;99.90
22578;DHT22;11455;52.390;13.028;2022-08-30T05:32:34;18.30;99.90
22578;DHT22;11455;52.390;13.028;2022-08-30T05:34:59;18.40;99.90
22578;DHT22;11455;52.390;13.028;2022-08-30T05:37:25;18.50;99.90
22578;DHT22;11455;52.390;13.028;2022-08-30T05:39:51;18.50;99.90
22578;DHT22;11455;52.390;13.028;2022-08-30T05:42:16;18.30;99.90
22578;DHT22;11455;52.390;13.028;2022-08-30T05:44:42;18.20;99.90
22578;DHT22;11455;52.390;13.028;2022-08-30T05:47:08;18.00;99.90
22578;DHT22;11455;52.390;13.028;2022-08-30T05:49:33;18.00;1.00
22578;DHT22;11455;52.390;13.028;2022-08-30T05:51:59;18.00;1.00
22578;DHT22;11455;52.390;13.028;2022-08-30T05:54:24;18.00;1.00
22578;DHT22;11455;52.390;13.028;2022-08-30T05:56:50;18.00;1.00
22578;DHT22;11455;52.390;13.028;2022-08-30T05:59:15;18.00;1.00
22578;DHT22;11455;52.390;13.028;2022-08-30T06:01:42;18.00;1.00
22578;DHT22;11455;52.390;13.028;2022-08-30T06:04:09;17.90;1.00
22578;DHT22;11455;52.390;13.028;2022-08-30T06:06:36;18.00;1.00
22578;DHT22;11455;52.390;13.028;2022-08-30T06:09:04;18.00;1.00
22578;DHT22;11455;52.390;13.028;2022-08-30T06:11:29;18.00;1.00
22578;DHT22;11455;52.390;13.028;2022-08-30T06:13:55;18.10;1.00
22578;DHT22;11455;52.390;13.028;2022-08-30T06:16:22;18.10;1.00
22578;DHT22;11455;52.390;13.028;2022-08-30T06:18:48;18.10;1.00
22578;DHT22;11455;52.390;13.028;2022-08-30T06:21:14;18.20;1.00
22578;DHT22;11455;52.390;13.028;2022-08-30T06:23:43;18.20;1.00
22578;DHT22;11455;52.390;13.028;2022-08-30T06:26:08;18.20;1.00
22578;DHT22;11455;52.390;13.028;2022-08-30T06:28:34;18.20;1.00
22578;DHT22;11455;52.390;13.028;2022-08-30T06:31:00;18.20;1.00
22578;DHT22;11455;52.390;13.028;2022-08-30T06:33:26;18.30;1.00
22578;DHT22;11455;52.390;13.028;2022-08-30T06:35:51;18.30;1.00
22578;DHT22;11455;52.390;13.028;2022-08-30T06:38:17;18.40;1.00
22578;DHT22;11455;52.390;13.028;2022-08-30T06:40:43;18.40;1.00
22578;DHT22;11455;52.390;13.028;2022-08-30T06:43:08;18.40;1.00
22578;DHT22;11455;52.390;13.028;2022-08-30T06:45:34;18.30;1.00
22578;DHT22;11455;52.390;13.028;2022-08-30T06:48:00;18.30;1.00
22578;DHT22;11455;52.390;13.028;2022-08-30T06:50:26;18.30;1.00
22578;DHT22;11455;52.390;13.028;2022-08-30T06:52:52;18.30;1.00
22578;DHT22;11455;52.390;13.028;2022-08-30T06:55:18;18.20;1.00
22578;DHT22;11455;52.390;13.028;2022-08-30T06:57:44;18.20;1.00
22578;DHT22;11455;52.390;13.028;2022-08-30T07:00:12;18.30;1.00
22578;DHT22;11455;52.390;13.028;2022-08-30T07:02:38;18.20;1.00
22578;DHT22;11455;52.390;13.028;2022-08-30T07:05:04;18.30;1.00
22578;DHT22;11455;52.390;13.028;2022-08-30T07:07:30;18.40;1.00
22578;DHT22;11455;52.390;13.028;2022-08-30T07:09:56;18.40;1.00
22578;DHT22;11455;52.390;13.028;2022-08-30T07:12:21;18.40;1.00
22578;DHT22;11455;52.390;13.028;2022-08-30T07:14:47;18.50;1.00
22578;DHT22;11455;52.390;13.028;2022-08-30T07:17:13;18.50;1.00
22578;DHT22;11455;52.390;13.028;2022-08-30T07:19:57;18.60;1.00
22578;DHT22;11455;52.390;13.028;2022-08-30T07:22:23;18.60;1.00
22578;DHT22;11455;52.390;13.028;2022-08-30T07:24:48;18.60;1.00
22578;DHT22;11455;52.390;13.028;2022-08-30T07:27:16;18.60;1.00
22578;DHT22;11455;52.390;13.028;2022-08-30T07:29:42;18.50;1.00
22578;DHT22;11455;52.390;13.028;2022-08-30T07:32:07;18.60;1.00
22578;DHT22;11455;52.390;13.028;2022-08-30T07:34:33;18.60;1.00
22578;DHT22;11455;52.390;13.028;2022-08-30T07:36:59;18.70;1.00
22578;DHT22;11455;52.390;13.028;2022-08-30T07:39:24;18.90;1.00
22578;DHT22;11455;52.390;13.028;2022-08-30T07:41:50;19.00;1.00
22578;DHT22;11455;52.390;13.028;2022-08-30T07:44:18;19.00;1.00
22578;DHT22;11455;52.390;13.028;2022-08-30T07:46:43;19.00;1.00
22578;DHT22;11455;52.390;13.028;2022-08-30T07:49:09;19.00;1.00
22578;DHT22;11455;52.390;13.028;2022-08-30T07:51:36;19.10;1.00
22578;DHT22;11455;52.390;13.028;2022-08-30T07:54:01;19.20;1.00
22578;DHT22;11455;52.390;13.028;2022-08-30T07:56:27;19.20;1.00
22578;DHT22;11455;52.390;13.028;2022-08-30T07:58:53;19.30;1.00
22578;DHT22;11455;52.390;13.028;2022-08-30T08:01:18;19.20;1.00
22578;DHT22;11455;52.390;13.028;2022-08-30T08:03:45;19.20;99.90
22578;DHT22;11455;52.390;13.028;2022-08-30T08:06:12;19.10;1.00
22578;DHT22;11455;52.390;13.028;2022-08-30T08:08:38;19.10;1.00
22578;DHT22;11455;52.390;13.028;2022-08-30T08:11:07;19.20;1.00
22578;DHT22;11455;52.390;13.028;2022-08-30T08:13:37;19.30;99.90
22578;DHT22;11455;52.390;13.028;2022-08-30T08:16:03;19.30;99.90
22578;DHT22;11455;52.390;13.028;2022-08-30T08:18:28;19.40;99.90
22578;DHT22;11455;52.390;13.028;2022-08-30T08:20:56;19.40;99.90
22578;DHT22;11455;52.390;13.028;2022-08-30T08:23:21;19.30;99.90
22578;DHT22;11455;52.390;13.028;2022-08-30T08:25:50;19.40;99.90
22578;DHT22;11455;52.390;13.028;2022-08-30T08:28:16;19.60;99.90
22578;DHT22;11455;52.390;13.028;2022-08-30T08:30:42;19.60;99.90
22578;DHT22;11455;52.390;13.028;2022-08-30T08:33:07;19.50;99.90
22578;DHT22;11455;52.390;13.028;2022-08-30T08:35:33;19.40;99.90
22578;DHT22;11455;52.390;13.028;2022-08-30T08:38:01;19.40;99.90
22578;DHT22;11455;52.390;13.028;2022-08-30T08:40:27;19.30;99.90
22578;DHT22;11455;52.390;13.028;2022-08-30T08:45:35;19.30;99.90
22578;DHT22;11455;52.390;13.028;2022-08-30T08:48:05;19.30;99.90
22578;DHT22;11455;52.390;13.028;2022-08-30T08:50:32;19.30;99.90
22578;DHT22;11455;52.390;13.028;2022-08-30T08:53:02;19.30;99.90
22578;DHT22;11455;52.390;13.028;2022-08-30T08:55:48;19.40;99.90
22578;DHT22;11455;52.390;13.028;2022-08-30T09:00:46;19.50;99.90
22578;DHT22;11455;52.390;13.028;2022-08-30T09:03:12;19.50;99.90
22578;DHT22;11455;52.390;13.028;2022-08-30T09:05:38;19.60;99.90
22578;DHT22;11455;52.390;13.028;2022-08-30T09:08:05;19.60;99.90
22578;DHT22;11455;52.390;13.028;2022-08-30T09:10:31;19.60;99.90
22578;DHT22;11455;52.390;13.028;2022-08-30T09:12:58;19.80;99.90
22578;DHT22;11455;52.390;13.028;2022-08-30T09:15:27;19.90;99.90
22578;DHT22;11455;52.390;13.028;2022-08-30T09:17:58;20.10;99.90
22578;DHT22;11455;52.390;13.028;2022-08-30T09:20:35;20.30;99.90
22578;DHT22;11455;52.390;13.028;2022-08-30T09:25:48;20.40;99.90
22578;DHT22;11455;52.390;13.028;2022-08-30T09:28:14;20.30;99.90
22578;DHT22;11455;52.390;13.028;2022-08-30T09:33:29;20.00;99.90
22578;DHT22;11455;52.390;13.028;2022-08-30T09:35:55;20.00;99.90
22578;DHT22;11455;52.390;13.028;2022-08-30T09:38:30;20.00;99.90
22578;DHT22;11455;52.390;13.028;2022-08-30T09:40:57;19.90;99.90
22578;DHT22;11455;52.390;13.028;2022-08-30T09:46:10;19.90;99.90
22578;DHT22;11455;52.390;13.028;2022-08-30T09:48:41;19.90;99.90
22578;DHT22;11455;52.390;13.028;2022-08-30T09:51:12;20.00;99.90
22578;DHT22;11455;52.390;13.028;2022-08-30T09:58:42;20.10;99.90
22578;DHT22;11455;52.390;13.028;2022-08-30T10:01:14;20.30;99.90
22578;DHT22;11455;52.390;13.028;2022-08-30T10:12:29;20.80;99.90
22578;DHT22;11455;52.390;13.028;2022-08-30T10:22:46;21.00;99.90
22578;DHT22;11455;52.390;13.028;2022-08-30T10:25:14;21.10;99.90
22578;DHT22;11455;52.390;13.028;2022-08-30T10:30:13;20.90;99.90
22578;DHT22;11455;52.390;13.028;2022-08-30T10:35:22;20.80;99.90
22578;DHT22;11455;52.390;13.028;2022-08-30T10:37:57;20.70;99.90
22578;DHT22;11455;52.390;13.028;2022-08-30T10:40:34;20.60;99.90
22578;DHT22;11455;52.390;13.028;2022-08-30T10:46:04;20.50;99.90
22578;DHT22;11455;52.390;13.028;2022-08-30T10:48:35;20.40;99.90
22578;DHT22;11455;52.390;13.028;2022-08-30T10:51:03;20.40;99.90
22578;DHT22;11455;52.390;13.028;2022-08-30T10:53:32;20.40;99.90
22578;DHT22;11455;52.390;13.028;2022-08-30T10:56:05;20.40;99.90
22578;DHT22;11455;52.390;13.028;2022-08-30T10:58:32;20.60;99.90
22578;DHT22;11455;52.390;13.028;2022-08-30T11:01:08;20.80;99.90
22578;DHT22;11455;52.390;13.028;2022-08-30T11:13:51;21.40;1.00
22578;DHT22;11455;52.390;13.028;2022-08-30T11:16:17;21.50;1.00
22578;DHT22;11455;52.390;13.028;2022-08-30T11:18:47;21.70;1.00
22578;DHT22;11455;52.390;13.028;2022-08-30T11:24:18;22.00;1.00
22578;DHT22;11455;52.390;13.028;2022-08-30T11:31:50;22.30;1.00
22578;DHT22;11455;52.390;13.028;2022-08-30T11:34:52;22.40;1.00
22578;DHT22;11455;52.390;13.028;2022-08-30T11:37:02;22.50;1.00
22578;DHT22;11455;52.390;13.028;2022-08-30T11:44:50;22.80;1.00
22578;DHT22;11455;52.390;13.028;2022-08-30T11:50:06;23.00;1.00
22578;DHT22;11455;52.390;13.028;2022-08-30T11:52:45;23.10;1.00
22578;DHT22;11455;52.390;13.028;2022-08-30T11:57:48;23.20;1.00
22578;DHT22;11455;52.390;13.028;2022-08-30T12:00:25;23.30;1.00
22578;DHT22;11455;52.390;13.028;2022-08-30T12:02:54;23.50;1.00
22578;DHT22;11455;52.390;13.028;2022-08-30T12:15:56;23.30;1.00
22578;DHT22;11455;52.390;13.028;2022-08-30T12:18:28;22.80;1.00
22578;DHT22;11455;52.390;13.028;2022-08-30T12:21:00;22.50;1.00
22578;DHT22;11455;52.390;13.028;2022-08-30T12:26:08;22.30;1.00
22578;DHT22;11455;52.390;13.028;2022-08-30T12:28:34;22.20;1.00
22578;DHT22;11455;52.390;13.028;2022-08-30T12:31:07;22.10;1.00
22578;DHT22;11455;52.390;13.028;2022-08-30T12:33:37;22.20;1.00
22578;DHT22;11455;52.390;13.028;2022-08-30T12:36:04;22.50;1.00
22578;DHT22;11455;52.390;13.028;2022-08-30T12:38:29;22.80;1.00
22578;DHT22;11455;52.390;13.028;2022-08-30T12:40:57;23.20;1.00
22578;DHT22;11455;52.390;13.028;2022-08-30T12:43:34;23.70;1.00
22578;DHT22;11455;52.390;13.028;2022-08-30T12:46:01;24.00;1.00
22578;DHT22;11455;52.390;13.028;2022-08-30T12:48:32;24.30;1.00
22578;DHT22;11455;52.390;13.028;2022-08-30T12:51:00;24.10;1.00
22578;DHT22;11455;52.390;13.028;2022-08-30T12:53:36;24.10;1.00
22578;DHT22;11455;52.390;13.028;2022-08-30T12:56:04;24.10;1.00
22578;DHT22;11455;52.390;13.028;2022-08-30T12:58:47;24.00;1.00
22578;DHT22;11455;52.390;13.028;2022-08-30T13:01:22;23.90;1.00
22578;DHT22;11455;52.390;13.028;2022-08-30T13:09:05;23.30;1.00
22578;DHT22;11455;52.390;13.028;2022-08-30T13:11:30;23.00;1.00
22578;DHT22;11455;52.390;13.028;2022-08-30T13:14:18;23.00;1.00
22578;DHT22;11455;52.390;13.028;2022-08-30T13:16:42;22.90;1.00
22578;DHT22;11455;52.390;13.028;2022-08-30T13:21:53;22.80;1.00
22578;DHT22;11455;52.390;13.028;2022-08-30T13:24:19;22.80;1.00
22578;DHT22;11455;52.390;13.028;2022-08-30T13:26:44;22.90;1.00
22578;DHT22;11455;52.390;13.028;2022-08-30T13:29:17;22.80;1.00
22578;DHT22;11455;52.390;13.028;2022-08-30T13:31:43;22.80;1.00
22578;DHT22;11455;52.390;13.028;2022-08-30T13:34:11;22.80;1.00
22578;DHT22;11455;52.390;13.028;2022-08-30T13:36:38;22.80;1.00
22578;DHT22;11455;52.390;13.028;2022-08-30T13:39:05;22.80;1.00
22578;DHT22;11455;52.390;13.028;2022-08-30T13:41:31;22.80;1.00
22578;DHT22;11455;52.390;13.028;2022-08-30T13:43:57;22.80;1.00
22578;DHT22;11455;52.390;13.028;2022-08-30T13:46:25;22.80;1.00
22578;DHT22;11455;52.390;13.028;2022-08-30T13:48:57;23.00;1.00
22578;DHT22;11455;52.390;13.028;2022-08-30T13:51:32;23.40;1.00
22578;DHT22;11455;52.390;13.028;2022-08-30T13:53:58;23.80;1.00
22578;DHT22;11455;52.390;13.028;2022-08-30T13:56:25;24.10;1.00
22578;DHT22;11455;52.390;13.028;2022-08-30T13:58:54;24.30;1.00
22578;DHT22;11455;52.390;13.028;2022-08-30T14:01:19;24.50;1.00
22578;DHT22;11455;52.390;13.028;2022-08-30T14:03:45;24.40;1.00
22578;DHT22;11455;52.390;13.028;2022-08-30T14:06:11;24.40;1.00
22578;DHT22;11455;52.390;13.028;2022-08-30T14:08:36;24.40;1.00
22578;DHT22;11455;52.390;13.028;2022-08-30T14:11:02;24.30;1.00
22578;DHT22;11455;52.390;13.028;2022-08-30T14:13:31;24.30;1.00
22578;DHT22;11455;52.390;13.028;2022-08-30T14:15:57;24.30;1.00
22578;DHT22;11455;52.390;13.028;2022-08-30T14:18:24;24.20;1.00
22578;DHT22;11455;52.390;13.028;2022-08-30T14:20:49;24.20;1.00
22578;DHT22;11455;52.390;13.028;2022-08-30T14:23:17;24.50;1.00
22578;DHT22;11455;52.390;13.028;2022-08-30T14:25:43;24.40;1.00
22578;DHT22;11455;52.390;13.028;2022-08-30T14:28:09;24.40;1.00
22578;DHT22;11455;52.390;13.028;2022-08-30T14:30:34;24.20;1.00
22578;DHT22;11455;52.390;13.028;2022-08-30T14:33:00;24.20;1.00
22578;DHT22;11455;52.390;13.028;2022-08-30T14:35:25;24.00;1.00
22578;DHT22;11455;52.390;13.028;2022-08-30T14:37:51;24.00;1.00
22578;DHT22;11455;52.390;13.028;2022-08-30T14:40:17;23.90;1.00
22578;DHT22;11455;52.390;13.028;2022-08-30T14:42:43;23.80;1.00
22578;DHT22;11455;52.390;13.028;2022-08-30T14:45:09;23.80;1.00
22578;DHT22;11455;52.390;13.028;2022-08-30T14:47:35;23.70;1.00
22578;DHT22;11455;52.390;13.028;2022-08-30T14:50:04;23.70;1.00
22578;DHT22;11455;52.390;13.028;2022-08-30T14:52:30;23.70;1.00
22578;DHT22;11455;52.390;13.028;2022-08-30T14:54:58;23.60;1.00
22578;DHT22;11455;52.390;13.028;2022-08-30T14:57:24;23.50;1.00
22578;DHT22;11455;52.390;13.028;2022-08-30T14:59:49;23.30;1.00
22578;DHT22;11455;52.390;13.028;2022-08-30T15:02:15;23.20;1.00
22578;DHT22;11455;52.390;13.028;2022-08-30T15:04:41;23.00;1.00
22578;DHT22;11455;52.390;13.028;2022-08-30T15:07:07;22.80;1.00
22578;DHT22;11455;52.390;13.028;2022-08-30T15:09:32;22.80;1.00
22578;DHT22;11455;52.390;13.028;2022-08-30T15:11:59;22.80;1.00
22578;DHT22;11455;52.390;13.028;2022-08-30T15:14:27;22.80;1.00
22578;DHT22;11455;52.390;13.028;2022-08-30T15:16:53;22.90;1.00
22578;DHT22;11455;52.390;13.028;2022-08-30T15:19:19;23.00;1.00
22578;DHT22;11455;52.390;13.028;2022-08-30T15:21:46;23.20;1.00
22578;DHT22;11455;52.390;13.028;2022-08-30T15:24:13;23.10;1.00
22578;DHT22;11455;52.390;13.028;2022-08-30T15:26:39;23.20;1.00
22578;DHT22;11455;52.390;13.028;2022-08-30T15:29:06;23.20;1.00
22578;DHT22;11455;52.390;13.028;2022-08-30T15:31:33;23.20;1.00
22578;DHT22;11455;52.390;13.028;2022-08-30T15:33:58;23.10;1.00
22578;DHT22;11455;52.390;13.028;2022-08-30T15:36:25;23.10;1.00
22578;DHT22;11455;52.390;13.028;2022-08-30T15:38:51;23.10;1.00
22578;DHT22;11455;52.390;13.028;2022-08-30T15:41:19;23.10;1.00
22578;DHT22;11455;52.390;13.028;2022-08-30T15:43:45;23.00;1.00
22578;DHT22;11455;52.390;13.028;2022-08-30T15:46:16;22.90;1.00
22578;DHT22;11455;52.390;13.028;2022-08-30T15:48:42;22.80;1.00
22578;DHT22;11455;52.390;13.028;2022-08-30T15:51:07;22.70;1.00
22578;DHT22;11455;52.390;13.028;2022-08-30T15:53:33;22.70;1.00
22578;DHT22;11455;52.390;13.028;2022-08-30T15:55:59;22.60;1.00
22578;DHT22;11455;52.390;13.028;2022-08-30T15:58:27;22.70;1.00
22578;DHT22;11455;52.390;13.028;2022-08-30T16:00:53;22.90;1.00
22578;DHT22;11455;52.390;13.028;2022-08-30T16:03:18;23.00;1.00
22578;DHT22;11455;52.390;13.028;2022-08-30T16:05:46;23.30;1.00
22578;DHT22;11455;52.390;13.028;2022-08-30T16:08:12;23.50;1.00
22578;DHT22;11455;52.390;13.028;2022-08-30T16:10:38;23.60;1.00
22578;DHT22;11455;52.390;13.028;2022-08-30T16:13:06;23.70;1.00
22578;DHT22;11455;52.390;13.028;2022-08-30T16:15:32;23.70;1.00
22578;DHT22;11455;52.390;13.028;2022-08-30T16:17:57;23.60;1.00
22578;DHT22;11455;52.390;13.028;2022-08-30T16:20:23;23.60;1.00
22578;DHT22;11455;52.390;13.028;2022-08-30T16:22:48;23.70;1.00
22578;DHT22;11455;52.390;13.028;2022-08-30T16:25:14;23.80;1.00
22578;DHT22;11455;52.390;13.028;2022-08-30T16:27:40;23.80;1.00
22578;DHT22;11455;52.390;13.028;2022-08-30T16:30:08;24.00;1.00
22578;DHT22;11455;52.390;13.028;2022-08-30T16:32:35;24.20;1.00
22578;DHT22;11455;52.390;13.028;2022-08-30T16:35:01;24.20;1.00
22578;DHT22;11455;52.390;13.028;2022-08-30T16:37:27;24.20;1.00
22578;DHT22;11455;52.390;13.028;2022-08-30T16:39:55;24.20;1.00
22578;DHT22;11455;52.390;13.028;2022-08-30T16:42:20;24.20;1.00
22578;DHT22;11455;52.390;13.028;2022-08-30T16:44:46;24.00;1.00
22578;DHT22;11455;52.390;13.028;2022-08-30T16:47:12;23.80;1.00
22578;DHT22;11455;52.390;13.028;2022-08-30T16:49:37;23.60;1.00
22578;DHT22;11455;52.390;13.028;2022-08-30T16:52:03;23.40;1.00
22578;DHT22;11455;52.390;13.028;2022-08-30T16:54:29;23.40;1.00
22578;DHT22;11455;52.390;13.028;2022-08-30T16:56:55;23.30;1.00
22578;DHT22;11455;52.390;13.028;2022-08-30T16:59:20;23.20;1.00